sensor_id;sensor_type;location;lat;lon;timestamp;pressure;altitude;pressure_sealevel;temperature;humidity
63500;BME280;49654;51.142;14.924;2022-12-15T00:01:39;97943.09;;;-3.17;74.94
63500;BME280;49654;51.142;14.924;2022-12-15T00:04:23;97941.50;;;-3.07;74.96
63500;BME280;49654;51.142;14.924;2022-12-15T00:07:08;97941.44;;;-2.96;74.73
63500;BME280;49654;51.142;14.924;2022-12-15T00:09:52;97938.81;;;-2.94;74.42
63500;BME280;49654;51.142;14.924;2022-12-15T00:12:37;97932.66;;;-2.92;74.21
63500;BME280;49654;51.142;14.924;2022-12-15T00:15:23;97941.34;;;-2.94;74.55
63500;BME280;49654;51.142;14.924;2022-12-15T00:18:07;97938.69;;;-3.04;74.56
63500;BME280;49654;51.142;14.924;2022-12-15T00:20:56;97927.63;;;-3.03;75.11
63500;BME280;49654;51.142;14.924;2022-12-15T00:23:40;97930.97;;;-3.03;74.46
63500;BME280;49654;51.142;14.924;2022-12-15T00:26:25;97930.31;;;-3.16;74.35
63500;BME280;49654;51.142;14.924;2022-12-15T00:29:09;97944.75;;;-3.28;75.03
63500;BME280;49654;51.142;14.924;2022-12-15T00:31:55;97944.53;;;-3.58;73.93
63500;BME280;49654;51.142;14.924;2022-12-15T00:34:40;97904.06;;;-3.71;73.65
63500;BME280;49654;51.142;14.924;2022-12-15T00:37:24;97948.44;;;-3.88;72.94
63500;BME280;49654;51.142;14.924;2022-12-15T00:40:10;97947.81;;;-4.03;72.75
63500;BME280;49654;51.142;14.924;2022-12-15T00:42:37;97942.38;;;-4.20;73.03
63500;BME280;49654;51.142;14.924;2022-12-15T00:45:05;97934.13;;;-4.46;73.53
63500;BME280;49654;51.142;14.924;2022-12-15T00:47:34;97931.47;;;-5.04;72.26
63500;BME280;49654;51.142;14.924;2022-12-15T00:50:00;97958.38;;;-5.03;73.53
63500;BME280;49654;51.142;14.924;2022-12-15T00:52:44;97963.69;;;-5.19;73.21
63500;BME280;49654;51.142;14.924;2022-12-15T00:55:29;97962.28;;;-5.23;74.40
63500;BME280;49654;51.142;14.924;2022-12-15T00:58:13;97960.72;;;-5.00;75.55
63500;BME280;49654;51.142;14.924;2022-12-15T01:01:04;97962.59;;;-4.91;73.84
63500;BME280;49654;51.142;14.924;2022-12-15T01:03:50;97968.47;;;-4.90;73.77
63500;BME280;49654;51.142;14.924;2022-12-15T01:06:34;97963.09;;;-4.62;73.28
63500;BME280;49654;51.142;14.924;2022-12-15T01:09:19;97952.09;;;-4.49;71.07
63500;BME280;49654;51.142;14.924;2022-12-15T01:12:03;97906.78;;;-4.65;70.94
63500;BME280;49654;51.142;14.924;2022-12-15T01:14:48;97956.69;;;-4.19;71.98
63500;BME280;49654;51.142;14.924;2022-12-15T01:17:33;97973.75;;;-3.99;72.16
63500;BME280;49654;51.142;14.924;2022-12-15T01:20:19;97979.44;;;-3.95;73.77
63500;BME280;49654;51.142;14.924;2022-12-15T01:22:48;97980.38;;;-3.74;73.18
63500;BME280;49654;51.142;14.924;2022-12-15T01:25:17;97984.34;;;-3.59;73.26
63500;BME280;49654;51.142;14.924;2022-12-15T01:27:45;97975.34;;;-3.63;73.03
63500;BME280;49654;51.142;14.924;2022-12-15T01:30:14;97968.25;;;-3.82;73.26
63500;BME280;49654;51.142;14.924;2022-12-15T01:32:41;97963.06;;;-3.91;74.19
63500;BME280;49654;51.142;14.924;2022-12-15T01:35:09;97971.91;;;-4.08;74.20
63500;BME280;49654;51.142;14.924;2022-12-15T01:37:37;97946.72;;;-4.34;75.82
63500;BME280;49654;51.142;14.924;2022-12-15T01:40:06;97980.84;;;-4.26;75.36
63500;BME280;49654;51.142;14.924;2022-12-15T01:42:51;97963.56;;;-4.81;75.69
63500;BME280;49654;51.142;14.924;2022-12-15T01:45:44;97987.63;;;-4.62;75.74
63500;BME280;49654;51.142;14.924;2022-12-15T01:48:16;97989.84;;;-4.58;75.99
63500;BME280;49654;51.142;14.924;2022-12-15T01:50:48;97996.19;;;-4.52;76.03
63500;BME280;49654;51.142;14.924;2022-12-15T01:53:20;97966.81;;;-5.15;73.38
63500;BME280;49654;51.142;14.924;2022-12-15T01:55:47;97982.22;;;-4.82;74.19
63500;BME280;49654;51.142;14.924;2022-12-15T01:58:16;97993.84;;;-4.55;74.41
63500;BME280;49654;51.142;14.924;2022-12-15T02:00:43;97992.06;;;-4.42;73.34
63500;BME280;49654;51.142;14.924;2022-12-15T02:03:11;98000.47;;;-4.41;73.24
63500;BME280;49654;51.142;14.924;2022-12-15T02:05:39;97957.78;;;-4.59;72.81
63500;BME280;49654;51.142;14.924;2022-12-15T02:08:08;97976.53;;;-4.37;73.41
63500;BME280;49654;51.142;14.924;2022-12-15T02:10:49;98005.13;;;-4.00;72.99
63500;BME280;49654;51.142;14.924;2022-12-15T02:13:26;98007.84;;;-3.68;73.20
63500;BME280;49654;51.142;14.924;2022-12-15T02:16:01;97988.13;;;-3.75;72.93
63500;BME280;49654;51.142;14.924;2022-12-15T02:18:33;98018.00;;;-3.34;72.74
63500;BME280;49654;51.142;14.924;2022-12-15T02:21:08;98032.00;;;-3.29;72.98
63500;BME280;49654;51.142;14.924;2022-12-15T02:27:08;98026.41;;;-3.56;74.38
63500;BME280;49654;51.142;14.924;2022-12-15T02:32:30;98049.53;;;-3.37;74.69
63500;BME280;49654;51.142;14.924;2022-12-15T02:35:04;98039.38;;;-3.37;74.31
63500;BME280;49654;51.142;14.924;2022-12-15T02:37:35;98064.75;;;-3.14;74.16
63500;BME280;49654;51.142;14.924;2022-12-15T02:40:07;98072.59;;;-3.17;74.21
63500;BME280;49654;51.142;14.924;2022-12-15T02:42:38;98069.25;;;-3.18;74.50
63500;BME280;49654;51.142;14.924;2022-12-15T02:45:10;98047.00;;;-3.37;74.54
63500;BME280;49654;51.142;14.924;2022-12-15T02:47:42;98083.91;;;-3.21;74.63
63500;BME280;49654;51.142;14.924;2022-12-15T02:50:37;98080.69;;;-2.90;74.36
63500;BME280;49654;51.142;14.924;2022-12-15T02:53:15;98076.41;;;-3.00;73.86
63500;BME280;49654;51.142;14.924;2022-12-15T02:55:54;98027.97;;;-3.20;73.28
63500;BME280;49654;51.142;14.924;2022-12-15T02:58:29;98064.75;;;-3.14;73.47
63500;BME280;49654;51.142;14.924;2022-12-15T03:01:00;98030.03;;;-3.25;73.66
63500;BME280;49654;51.142;14.924;2022-12-15T03:03:31;98089.22;;;-2.68;72.88
63500;BME280;49654;51.142;14.924;2022-12-15T03:06:01;98026.66;;;-2.81;71.89
63500;BME280;49654;51.142;14.924;2022-12-15T03:08:29;98089.91;;;-2.44;70.86
63500;BME280;49654;51.142;14.924;2022-12-15T03:10:57;98094.53;;;-2.71;71.56
63500;BME280;49654;51.142;14.924;2022-12-15T03:13:24;98090.63;;;-2.75;72.30
63500;BME280;49654;51.142;14.924;2022-12-15T03:15:51;98099.38;;;-2.57;71.71
63500;BME280;49654;51.142;14.924;2022-12-15T03:18:19;98093.50;;;-2.80;71.95
63500;BME280;49654;51.142;14.924;2022-12-15T03:20:47;98102.38;;;-2.52;71.86
63500;BME280;49654;51.142;14.924;2022-12-15T03:23:15;98096.28;;;-2.72;72.01
63500;BME280;49654;51.142;14.924;2022-12-15T03:25:43;98105.88;;;-2.87;72.49
63500;BME280;49654;51.142;14.924;2022-12-15T03:28:10;98100.91;;;-2.88;72.81
63500;BME280;49654;51.142;14.924;2022-12-15T03:30:37;98116.84;;;-2.97;72.89
63500;BME280;49654;51.142;14.924;2022-12-15T03:33:04;98115.13;;;-2.86;72.57
63500;BME280;49654;51.142;14.924;2022-12-15T03:35:31;98113.59;;;-2.88;73.17
63500;BME280;49654;51.142;14.924;2022-12-15T03:38:00;98113.00;;;-2.58;73.07
63500;BME280;49654;51.142;14.924;2022-12-15T03:40:27;98129.41;;;-2.51;71.59
63500;BME280;49654;51.142;14.924;2022-12-15T03:42:54;98125.63;;;-2.57;71.40
63500;BME280;49654;51.142;14.924;2022-12-15T03:45:23;98123.78;;;-2.77;72.04
63500;BME280;49654;51.142;14.924;2022-12-15T03:47:50;98124.34;;;-2.73;72.52
63500;BME280;49654;51.142;14.924;2022-12-15T03:50:20;98122.59;;;-2.84;73.09
63500;BME280;49654;51.142;14.924;2022-12-15T03:52:49;98122.72;;;-2.97;73.06
63500;BME280;49654;51.142;14.924;2022-12-15T03:55:18;98119.25;;;-2.96;73.34
63500;BME280;49654;51.142;14.924;2022-12-15T03:57:45;98094.31;;;-3.13;73.38
63500;BME280;49654;51.142;14.924;2022-12-15T04:00:13;98124.00;;;-3.03;73.52
63500;BME280;49654;51.142;14.924;2022-12-15T04:02:41;98120.88;;;-3.06;73.62
63500;BME280;49654;51.142;14.924;2022-12-15T04:05:13;98142.81;;;-2.94;74.03
63500;BME280;49654;51.142;14.924;2022-12-15T04:07:40;98147.91;;;-2.94;73.72
63500;BME280;49654;51.142;14.924;2022-12-15T04:10:09;98147.19;;;-2.96;73.75
63500;BME280;49654;51.142;14.924;2022-12-15T04:12:37;98140.59;;;-3.10;73.33
63500;BME280;49654;51.142;14.924;2022-12-15T04:15:06;98025.16;;;-3.62;73.37
63500;BME280;49654;51.142;14.924;2022-12-15T04:17:34;98163.38;;;-2.97;73.25
63500;BME280;49654;51.142;14.924;2022-12-15T04:20:03;98121.75;;;-3.41;73.36
63500;BME280;49654;51.142;14.924;2022-12-15T04:22:37;98168.06;;;-3.15;73.61
63500;BME280;49654;51.142;14.924;2022-12-15T04:25:06;98156.97;;;-3.25;73.97
63500;BME280;49654;51.142;14.924;2022-12-15T04:27:52;98183.44;;;-3.16;73.81
63500;BME280;49654;51.142;14.924;2022-12-15T04:30:37;98176.03;;;-3.19;74.12
63500;BME280;49654;51.142;14.924;2022-12-15T04:33:23;98138.78;;;-3.43;73.96
63500;BME280;49654;51.142;14.924;2022-12-15T04:36:09;98179.84;;;-3.14;73.72
63500;BME280;49654;51.142;14.924;2022-12-15T04:38:55;98185.16;;;-3.06;73.00
63500;BME280;49654;51.142;14.924;2022-12-15T04:41:40;98176.75;;;-3.06;73.11
63500;BME280;49654;51.142;14.924;2022-12-15T04:44:26;98180.91;;;-3.05;73.26
63500;BME280;49654;51.142;14.924;2022-12-15T04:47:11;98185.28;;;-3.07;72.95
63500;BME280;49654;51.142;14.924;2022-12-15T04:49:57;98198.41;;;-3.24;73.25
63500;BME280;49654;51.142;14.924;2022-12-15T04:52:41;98205.31;;;-3.27;73.35
63500;BME280;49654;51.142;14.924;2022-12-15T04:55:26;98193.03;;;-3.44;72.59
63500;BME280;49654;51.142;14.924;2022-12-15T04:58:10;98214.72;;;-3.40;72.53
63500;BME280;49654;51.142;14.924;2022-12-15T05:00:57;98210.59;;;-3.41;72.22
63500;BME280;49654;51.142;14.924;2022-12-15T05:03:42;98218.75;;;-3.48;71.47
63500;BME280;49654;51.142;14.924;2022-12-15T05:06:26;98216.25;;;-3.61;71.37
63500;BME280;49654;51.142;14.924;2022-12-15T05:09:11;98227.34;;;-3.62;70.85
63500;BME280;49654;51.142;14.924;2022-12-15T05:11:56;98215.84;;;-3.79;71.44
63500;BME280;49654;51.142;14.924;2022-12-15T05:14:40;98234.13;;;-3.87;71.65
63500;BME280;49654;51.142;14.924;2022-12-15T05:17:27;98205.69;;;-4.16;71.41
63500;BME280;49654;51.142;14.924;2022-12-15T05:20:12;98187.22;;;-4.80;71.03
63500;BME280;49654;51.142;14.924;2022-12-15T05:22:57;98239.31;;;-4.76;70.41
63500;BME280;49654;51.142;14.924;2022-12-15T05:25:42;98241.44;;;-4.95;70.79
63500;BME280;49654;51.142;14.924;2022-12-15T05:28:27;98244.03;;;-4.97;72.33
63500;BME280;49654;51.142;14.924;2022-12-15T05:31:12;98234.75;;;-4.84;71.67
63500;BME280;49654;51.142;14.924;2022-12-15T05:33:58;98255.22;;;-4.61;70.70
63500;BME280;49654;51.142;14.924;2022-12-15T05:36:25;98268.69;;;-4.86;69.96
63500;BME280;49654;51.142;14.924;2022-12-15T05:38:52;98248.19;;;-5.09;69.23
63500;BME280;49654;51.142;14.924;2022-12-15T05:41:20;98250.91;;;-5.24;69.32
63500;BME280;49654;51.142;14.924;2022-12-15T05:43:48;98228.00;;;-5.63;69.12
63500;BME280;49654;51.142;14.924;2022-12-15T05:46:15;98251.34;;;-5.99;70.10
63500;BME280;49654;51.142;14.924;2022-12-15T05:48:42;98219.63;;;-6.46;70.87
63500;BME280;49654;51.142;14.924;2022-12-15T05:51:11;98238.84;;;-6.43;71.80
63500;BME280;49654;51.142;14.924;2022-12-15T05:53:40;98222.16;;;-6.46;71.92
63500;BME280;49654;51.142;14.924;2022-12-15T05:56:09;98290.72;;;-5.95;70.68
63500;BME280;49654;51.142;14.924;2022-12-15T05:58:38;98293.13;;;-5.93;70.68
63500;BME280;49654;51.142;14.924;2022-12-15T06:01:07;98297.50;;;-5.83;71.02
63500;BME280;49654;51.142;14.924;2022-12-15T06:03:34;98268.13;;;-5.98;70.97
63500;BME280;49654;51.142;14.924;2022-12-15T06:06:02;98266.06;;;-6.06;71.56
63500;BME280;49654;51.142;14.924;2022-12-15T06:08:33;98304.00;;;-5.79;71.19
63500;BME280;49654;51.142;14.924;2022-12-15T06:11:01;98301.31;;;-5.90;70.55
63500;BME280;49654;51.142;14.924;2022-12-15T06:13:29;98313.09;;;-6.03;70.29
63500;BME280;49654;51.142;14.924;2022-12-15T06:15:59;98317.25;;;-6.16;69.73
63500;BME280;49654;51.142;14.924;2022-12-15T06:18:28;98325.91;;;-6.35;69.66
63500;BME280;49654;51.142;14.924;2022-12-15T06:20:56;98306.50;;;-6.63;68.29
63500;BME280;49654;51.142;14.924;2022-12-15T06:23:24;98328.47;;;-6.65;68.61
63500;BME280;49654;51.142;14.924;2022-12-15T06:25:54;98302.19;;;-6.91;68.76
63500;BME280;49654;51.142;14.924;2022-12-15T06:28:21;98328.31;;;-6.92;68.80
63500;BME280;49654;51.142;14.924;2022-12-15T06:30:50;98317.34;;;-7.07;69.34
63500;BME280;49654;51.142;14.924;2022-12-15T06:33:18;98330.41;;;-7.14;68.93
63500;BME280;49654;51.142;14.924;2022-12-15T06:35:46;98331.47;;;-7.18;70.15
63500;BME280;49654;51.142;14.924;2022-12-15T06:38:14;98314.66;;;-7.34;69.69
63500;BME280;49654;51.142;14.924;2022-12-15T06:40:41;98353.84;;;-7.12;70.10
63500;BME280;49654;51.142;14.924;2022-12-15T06:43:10;98337.91;;;-7.28;70.15
63500;BME280;49654;51.142;14.924;2022-12-15T06:45:37;98346.53;;;-7.33;70.28
63500;BME280;49654;51.142;14.924;2022-12-15T06:48:04;98348.69;;;-7.41;71.40
63500;BME280;49654;51.142;14.924;2022-12-15T06:50:32;98354.03;;;-7.47;71.81
63500;BME280;49654;51.142;14.924;2022-12-15T06:52:59;98358.91;;;-7.44;72.48
63500;BME280;49654;51.142;14.924;2022-12-15T06:55:27;98351.25;;;-7.42;72.37
63500;BME280;49654;51.142;14.924;2022-12-15T06:57:54;98288.09;;;-7.87;72.03
63500;BME280;49654;51.142;14.924;2022-12-15T07:00:22;98356.41;;;-7.44;72.17
63500;BME280;49654;51.142;14.924;2022-12-15T07:02:49;98371.94;;;-7.36;72.70
63500;BME280;49654;51.142;14.924;2022-12-15T07:05:16;98371.09;;;-7.20;73.68
63500;BME280;49654;51.142;14.924;2022-12-15T07:07:43;98366.84;;;-7.04;73.20
63500;BME280;49654;51.142;14.924;2022-12-15T07:10:11;98295.34;;;-7.19;73.08
63500;BME280;49654;51.142;14.924;2022-12-15T07:12:38;98343.69;;;-6.81;73.70
63500;BME280;49654;51.142;14.924;2022-12-15T07:15:06;98371.53;;;-6.52;73.61
63500;BME280;49654;51.142;14.924;2022-12-15T07:17:36;98379.22;;;-6.39;72.85
63500;BME280;49654;51.142;14.924;2022-12-15T07:20:03;98391.97;;;-6.26;72.96
63500;BME280;49654;51.142;14.924;2022-12-15T07:22:31;98404.44;;;-6.09;73.42
63500;BME280;49654;51.142;14.924;2022-12-15T07:24:58;98388.19;;;-6.05;72.27
63500;BME280;49654;51.142;14.924;2022-12-15T07:27:25;98405.03;;;-5.91;72.33
63500;BME280;49654;51.142;14.924;2022-12-15T07:29:52;98389.47;;;-5.98;71.95
63500;BME280;49654;51.142;14.924;2022-12-15T07:32:19;98414.38;;;-5.92;71.46
63500;BME280;49654;51.142;14.924;2022-12-15T07:34:48;98412.28;;;-5.85;73.07
63500;BME280;49654;51.142;14.924;2022-12-15T07:37:15;98355.72;;;-6.11;73.76
63500;BME280;49654;51.142;14.924;2022-12-15T07:39:42;98367.25;;;-5.93;73.86
63500;BME280;49654;51.142;14.924;2022-12-15T07:42:09;98411.03;;;-5.64;73.64
63500;BME280;49654;51.142;14.924;2022-12-15T07:44:36;98413.84;;;-5.68;74.00
63500;BME280;49654;51.142;14.924;2022-12-15T07:47:03;98417.81;;;-5.64;73.46
63500;BME280;49654;51.142;14.924;2022-12-15T07:49:31;98384.56;;;-5.87;73.35
63500;BME280;49654;51.142;14.924;2022-12-15T07:51:59;98438.91;;;-5.80;73.43
63500;BME280;49654;51.142;14.924;2022-12-15T07:54:26;98431.69;;;-5.57;73.79
63500;BME280;49654;51.142;14.924;2022-12-15T07:56:53;98396.22;;;-5.84;74.19
63500;BME280;49654;51.142;14.924;2022-12-15T07:59:20;98447.22;;;-5.49;74.43
63500;BME280;49654;51.142;14.924;2022-12-15T08:01:48;98442.47;;;-5.39;74.56
63500;BME280;49654;51.142;14.924;2022-12-15T08:04:15;98440.56;;;-5.50;74.90
63500;BME280;49654;51.142;14.924;2022-12-15T08:06:43;98451.13;;;-5.43;75.21
63500;BME280;49654;51.142;14.924;2022-12-15T08:09:12;98439.91;;;-5.54;74.69
63500;BME280;49654;51.142;14.924;2022-12-15T08:11:39;98448.75;;;-5.32;75.09
63500;BME280;49654;51.142;14.924;2022-12-15T08:14:06;98424.25;;;-5.17;74.42
63500;BME280;49654;51.142;14.924;2022-12-15T08:16:33;98376.34;;;-5.20;73.78
63500;BME280;49654;51.142;14.924;2022-12-15T08:19:01;98456.88;;;-4.59;72.36
63500;BME280;49654;51.142;14.924;2022-12-15T08:21:30;98461.44;;;-4.37;70.35
63500;BME280;49654;51.142;14.924;2022-12-15T08:23:58;98458.94;;;-3.86;69.62
63500;BME280;49654;51.142;14.924;2022-12-15T08:26:27;98457.00;;;-3.57;67.74
63500;BME280;49654;51.142;14.924;2022-12-15T08:28:54;98459.97;;;-3.50;66.92
63500;BME280;49654;51.142;14.924;2022-12-15T08:31:23;98462.75;;;-3.16;66.74
63500;BME280;49654;51.142;14.924;2022-12-15T08:33:50;98467.97;;;-2.94;65.85
63500;BME280;49654;51.142;14.924;2022-12-15T08:36:18;98424.91;;;-3.32;64.69
63500;BME280;49654;51.142;14.924;2022-12-15T08:38:46;98463.75;;;-3.06;65.07
63500;BME280;49654;51.142;14.924;2022-12-15T08:41:15;98417.53;;;-3.73;65.37
63500;BME280;49654;51.142;14.924;2022-12-15T08:43:45;98472.97;;;-3.55;65.91
63500;BME280;49654;51.142;14.924;2022-12-15T08:46:12;98435.72;;;-3.92;67.30
63500;BME280;49654;51.142;14.924;2022-12-15T08:48:39;98481.09;;;-3.75;68.15
63500;BME280;49654;51.142;14.924;2022-12-15T08:51:06;98478.44;;;-3.48;67.41
63500;BME280;49654;51.142;14.924;2022-12-15T08:53:34;98479.75;;;-3.30;66.67
63500;BME280;49654;51.142;14.924;2022-12-15T08:56:02;98492.72;;;-3.21;66.20
63500;BME280;49654;51.142;14.924;2022-12-15T08:58:30;98492.50;;;-3.18;65.68
63500;BME280;49654;51.142;14.924;2022-12-15T09:01:00;98473.13;;;-3.32;66.21
63500;BME280;49654;51.142;14.924;2022-12-15T09:03:27;98495.22;;;-3.09;65.69
63500;BME280;49654;51.142;14.924;2022-12-15T09:05:55;98453.78;;;-3.46;65.79
63500;BME280;49654;51.142;14.924;2022-12-15T09:08:23;98445.53;;;-3.49;65.78
63500;BME280;49654;51.142;14.924;2022-12-15T09:10:51;98470.28;;;-3.28;65.56
63500;BME280;49654;51.142;14.924;2022-12-15T09:13:18;98508.63;;;-2.94;65.53
63500;BME280;49654;51.142;14.924;2022-12-15T09:15:45;98501.16;;;-3.08;65.40
63500;BME280;49654;51.142;14.924;2022-12-15T09:18:13;98468.38;;;-3.49;66.32
63500;BME280;49654;51.142;14.924;2022-12-15T09:20:41;98503.50;;;-3.31;66.31
63500;BME280;49654;51.142;14.924;2022-12-15T09:23:08;98482.50;;;-3.33;66.75
63500;BME280;49654;51.142;14.924;2022-12-15T09:25:35;98462.56;;;-3.39;66.15
63500;BME280;49654;51.142;14.924;2022-12-15T09:28:02;98488.25;;;-2.81;65.26
63500;BME280;49654;51.142;14.924;2022-12-15T09:30:29;98466.81;;;-2.77;65.34
63500;BME280;49654;51.142;14.924;2022-12-15T09:32:56;98493.28;;;-2.20;64.41
63500;BME280;49654;51.142;14.924;2022-12-15T09:35:26;98492.25;;;-2.18;62.92
63500;BME280;49654;51.142;14.924;2022-12-15T09:37:55;98493.25;;;-1.96;63.31
63500;BME280;49654;51.142;14.924;2022-12-15T09:40:23;98487.00;;;-2.28;63.37
63500;BME280;49654;51.142;14.924;2022-12-15T09:42:52;98500.75;;;-2.30;63.37
63500;BME280;49654;51.142;14.924;2022-12-15T09:45:22;98509.47;;;-2.21;63.54
63500;BME280;49654;51.142;14.924;2022-12-15T09:47:54;98496.97;;;-2.24;63.03
63500;BME280;49654;51.142;14.924;2022-12-15T09:50:26;98491.03;;;-2.60;63.29
63500;BME280;49654;51.142;14.924;2022-12-15T09:52:55;98511.00;;;-2.80;64.11
63500;BME280;49654;51.142;14.924;2022-12-15T09:55:26;98500.72;;;-3.02;65.66
63500;BME280;49654;51.142;14.924;2022-12-15T09:57:55;98507.34;;;-2.75;65.16
63500;BME280;49654;51.142;14.924;2022-12-15T10:00:24;98504.03;;;-2.52;64.68
63500;BME280;49654;51.142;14.924;2022-12-15T10:03:10;98445.34;;;-2.73;63.93
63500;BME280;49654;51.142;14.924;2022-12-15T10:05:51;98523.44;;;-1.92;63.20
63500;BME280;49654;51.142;14.924;2022-12-15T10:08:21;98524.38;;;-1.82;63.14
63500;BME280;49654;51.142;14.924;2022-12-15T10:10:52;98508.91;;;-1.79;62.52
63500;BME280;49654;51.142;14.924;2022-12-15T10:13:37;98506.84;;;-1.73;62.72
63500;BME280;49654;51.142;14.924;2022-12-15T10:16:16;98503.69;;;-1.77;62.37
63500;BME280;49654;51.142;14.924;2022-12-15T10:18:53;98517.69;;;-1.83;62.68
63500;BME280;49654;51.142;14.924;2022-12-15T10:21:26;98510.75;;;-1.81;62.20
63500;BME280;49654;51.142;14.924;2022-12-15T10:23:56;98522.84;;;-1.95;62.93
63500;BME280;49654;51.142;14.924;2022-12-15T10:26:29;98532.19;;;-2.07;63.34
63500;BME280;49654;51.142;14.924;2022-12-15T10:29:21;98534.97;;;-2.34;64.23
63500;BME280;49654;51.142;14.924;2022-12-15T10:31:52;98528.19;;;-2.46;65.21
63500;BME280;49654;51.142;14.924;2022-12-15T10:34:26;98530.41;;;-2.42;65.68
63500;BME280;49654;51.142;14.924;2022-12-15T10:36:55;98535.66;;;-2.32;65.31
63500;BME280;49654;51.142;14.924;2022-12-15T10:39:28;98535.44;;;-2.29;65.23
63500;BME280;49654;51.142;14.924;2022-12-15T10:42:17;98528.63;;;-2.29;64.53
63500;BME280;49654;51.142;14.924;2022-12-15T10:44:47;98540.91;;;-2.22;64.41
63500;BME280;49654;51.142;14.924;2022-12-15T10:47:21;98546.25;;;-2.38;65.39
63500;BME280;49654;51.142;14.924;2022-12-15T10:49:48;98550.16;;;-2.45;64.97
63500;BME280;49654;51.142;14.924;2022-12-15T10:52:22;98550.69;;;-2.53;65.54
63500;BME280;49654;51.142;14.924;2022-12-15T10:54:51;98549.09;;;-2.30;65.88
63500;BME280;49654;51.142;14.924;2022-12-15T10:57:21;98558.84;;;-2.37;65.16
63500;BME280;49654;51.142;14.924;2022-12-15T10:59:48;98562.50;;;-2.52;65.77
63500;BME280;49654;51.142;14.924;2022-12-15T11:02:27;98552.66;;;-2.57;66.08
63500;BME280;49654;51.142;14.924;2022-12-15T11:04:58;98569.50;;;-2.56;65.82
63500;BME280;49654;51.142;14.924;2022-12-15T11:07:33;98572.78;;;-2.66;66.41
63500;BME280;49654;51.142;14.924;2022-12-15T11:10:13;98559.88;;;-2.63;66.45
63500;BME280;49654;51.142;14.924;2022-12-15T11:12:41;98564.03;;;-2.62;66.23
63500;BME280;49654;51.142;14.924;2022-12-15T11:15:36;98561.53;;;-2.38;64.87
63500;BME280;49654;51.142;14.924;2022-12-15T11:18:10;98566.84;;;-2.54;64.82
63500;BME280;49654;51.142;14.924;2022-12-15T11:20:43;98560.03;;;-2.78;64.75
63500;BME280;49654;51.142;14.924;2022-12-15T11:23:17;98565.72;;;-2.74;64.90
63500;BME280;49654;51.142;14.924;2022-12-15T11:25:49;98537.38;;;-2.93;63.43
63500;BME280;49654;51.142;14.924;2022-12-15T11:28:21;98575.25;;;-2.78;63.61
63500;BME280;49654;51.142;14.924;2022-12-15T11:30:55;98585.66;;;-2.93;64.20
63500;BME280;49654;51.142;14.924;2022-12-15T11:33:23;98584.78;;;-2.68;63.47
63500;BME280;49654;51.142;14.924;2022-12-15T11:35:59;98590.13;;;-2.47;62.92
63500;BME280;49654;51.142;14.924;2022-12-15T11:38:40;98579.06;;;-2.22;63.39
63500;BME280;49654;51.142;14.924;2022-12-15T11:41:15;98561.84;;;-1.95;63.18
63500;BME280;49654;51.142;14.924;2022-12-15T11:44:14;98576.97;;;-1.93;61.97
63500;BME280;49654;51.142;14.924;2022-12-15T11:46:48;98584.47;;;-2.03;62.96
63500;BME280;49654;51.142;14.924;2022-12-15T11:49:31;98568.06;;;-1.99;63.12
63500;BME280;49654;51.142;14.924;2022-12-15T11:52:03;98575.09;;;-1.67;62.42
63500;BME280;49654;51.142;14.924;2022-12-15T11:54:38;98564.19;;;-1.45;61.74
63500;BME280;49654;51.142;14.924;2022-12-15T11:57:25;98560.25;;;-1.27;61.14
63500;BME280;49654;51.142;14.924;2022-12-15T12:00:03;98557.25;;;-1.32;58.82
63500;BME280;49654;51.142;14.924;2022-12-15T12:02:45;98404.72;;;-2.27;59.22
63500;BME280;49654;51.142;14.924;2022-12-15T12:05:31;98557.09;;;-1.42;59.37
63500;BME280;49654;51.142;14.924;2022-12-15T12:08:14;98558.31;;;-1.23;59.12
63500;BME280;49654;51.142;14.924;2022-12-15T12:10:51;98564.66;;;-1.18;59.66
63500;BME280;49654;51.142;14.924;2022-12-15T12:13:27;98553.66;;;-0.96;59.14
63500;BME280;49654;51.142;14.924;2022-12-15T12:16:03;98545.56;;;-1.01;57.89
63500;BME280;49654;51.142;14.924;2022-12-15T12:18:37;98561.53;;;-0.99;57.50
63500;BME280;49654;51.142;14.924;2022-12-15T12:21:08;98530.13;;;-1.33;58.21
63500;BME280;49654;51.142;14.924;2022-12-15T12:23:40;98542.88;;;-1.44;59.20
63500;BME280;49654;51.142;14.924;2022-12-15T12:26:14;98549.25;;;-1.28;59.32
63500;BME280;49654;51.142;14.924;2022-12-15T12:28:46;98387.50;;;-2.58;57.42
63500;BME280;49654;51.142;14.924;2022-12-15T12:31:21;98535.69;;;-1.97;55.54
63500;BME280;49654;51.142;14.924;2022-12-15T12:33:54;98524.47;;;-2.30;56.28
63500;BME280;49654;51.142;14.924;2022-12-15T12:36:24;98547.75;;;-2.36;57.62
63500;BME280;49654;51.142;14.924;2022-12-15T12:38:54;98552.28;;;-2.76;57.16
63500;BME280;49654;51.142;14.924;2022-12-15T12:41:29;98454.28;;;-3.66;56.99
63500;BME280;49654;51.142;14.924;2022-12-15T12:44:03;98517.53;;;-3.50;58.69
63500;BME280;49654;51.142;14.924;2022-12-15T12:46:39;98520.38;;;-3.30;59.60
63500;BME280;49654;51.142;14.924;2022-12-15T12:49:12;98481.25;;;-3.40;59.25
63500;BME280;49654;51.142;14.924;2022-12-15T12:51:48;98550.06;;;-2.81;58.29
63500;BME280;49654;51.142;14.924;2022-12-15T12:54:46;98549.66;;;-2.87;56.88
63500;BME280;49654;51.142;14.924;2022-12-15T12:57:32;98554.75;;;-3.13;56.92
63500;BME280;49654;51.142;14.924;2022-12-15T13:00:12;98549.19;;;-3.31;57.79
63500;BME280;49654;51.142;14.924;2022-12-15T13:02:49;98519.25;;;-3.51;58.15
63500;BME280;49654;51.142;14.924;2022-12-15T13:05:25;98548.88;;;-3.13;58.07
63500;BME280;49654;51.142;14.924;2022-12-15T13:07:55;98541.47;;;-3.16;56.55
63500;BME280;49654;51.142;14.924;2022-12-15T13:10:23;98545.34;;;-2.61;54.97
63500;BME280;49654;51.142;14.924;2022-12-15T13:12:53;98497.44;;;-1.73;53.17
63500;BME280;49654;51.142;14.924;2022-12-15T13:15:36;98511.28;;;-0.21;51.19
63500;BME280;49654;51.142;14.924;2022-12-15T13:18:10;98507.47;;;1.08;47.92
63500;BME280;49654;51.142;14.924;2022-12-15T13:20:39;98493.88;;;0.77;47.30
63500;BME280;49654;51.142;14.924;2022-12-15T13:23:35;98552.19;;;0.62;48.26
63500;BME280;49654;51.142;14.924;2022-12-15T13:26:13;98525.53;;;2.62;44.12
63500;BME280;49654;51.142;14.924;2022-12-15T13:28:47;98533.38;;;5.18;39.12